Crystal Serenity — C6SY3 — position and weather

sailwx.info

Track history (hours):
 
Tides and Currents Weather Stations Pressure Air Temp Water Temp Dewpoint Dewpoint Depression Visibility Wind Speed Wind Dir Waves Ship Positions

Crystal Serenity

Operator: Crystal Cruises

Last reported at 2017-May-28 08:00 UTC. Time now 2017-May-28 12:24 UTC.
Position N 24°48' W 146°18'.

Length 250 m; draft 7.5 m.

Type: Passenger vessel. MMSI: 311536000.

Wind from 150 at 5 knots

Barometer 1018.0 mb
Air temperature 24.0 ° C
Visibility: greater than 10.8 NM
Water temperature 23.0 ° C

Date/timePositionNaut miles runAvg speedWind from/ knotsBaromVisibWave heightAir tempDewpointWater temp
2017-May-28 08:00N 24°48' W 146°18'15619.5 150 / 51018.010.8 24.0 23.0
2017-May-28 00:00N 25°42' W 143°36'3517.3 170 / 221019.010.8 24.0 24.0
2017-May-27 22:00N 25°54' W 143°00'1717.3 170 / 211019.010.8 24.0 24.0
2017-May-27 21:00N 26°00' W 142°42'28820.5 180 / 151011.010.8 24.0 24.0
2017-May-27 07:00N 27°30' W 137°36'21919.9 050 / 101017.010.8 20.0 18.0
2017-May-26 20:00N 28°42' W 133°42'8421.1 330 / 111017.010.8 19.0 18.0
2017-May-26 16:00N 29°12' W 132°12'7719.3 330 / 161018.0 5.4 18.0 19.0
2017-May-26 12:00N 29°36' W 130°48'13719.5 360 / 121017.010.8 17.0 19.0
2017-May-26 05:00N 30°18' W 128°18'12625.2 360 / 181011.010.8 18.0 16.0
2017-May-26 00:00N 31°00' W 126°00'9218.4 330 / 211011.010.8 16.0 17.0
2017-May-25 19:00N 31°30' W 124°18'14620.8 330 / 151011.010.8 16.0 18.0
2017-May-25 12:00N 32°18' W 121°36'3015.5 300 / 151011.010.8 16.0 16.0
2017-May-25 10:02N 32°32' W 121°05'5219.9
2017-May-25 07:25N 32°50' W 120°06'820.3
2017-May-25 07:00N 32°52' W 119°56'1020.1
2017-May-25 06:30N 32°56' W 119°45'1120.6
2017-May-25 05:59N 32°59' W 119°33'1020.8
2017-May-25 05:30N 33°04' W 119°23'1020.6
2017-May-25 05:00N 33°10' W 119°13'4345.3
2017-May-25 05:00N 33°06' W 119°12'1326.5 330 / 181011.010.8 16.0 18.0
2017-May-25 04:30N 33°16' W 119°03'1020.6
2017-May-25 04:00N 33°22' W 118°53'1019.2
2017-May-25 03:30N 33°27' W 118°43'713.3
2017-May-25 03:00N 33°31' W 118°36'611.8
2017-May-25 02:30N 33°32' W 118°29'611.9
2017-May-25 02:00N 33°34' W 118°22'611.2
2017-May-25 01:30N 33°37' W 118°17'510.4
2017-May-25 01:01N 33°42' W 118°15'3 6.2
2017-May-25 00:31N 33°44' W 118°17'1 1.1
2017-May-24 23:55N 33°45' W 118°17'0 0.0
2017-May-24 23:28N 33°45' W 118°17'0 0.0
2017-May-24 22:58N 33°45' W 118°17'0 0.0
2017-May-24 22:28N 33°45' W 118°17'0 0.0
2017-May-24 21:58N 33°45' W 118°17'0 0.0
2017-May-24 21:28N 33°45' W 118°17'0 0.0
2017-May-24 20:58N 33°45' W 118°17'0 0.0
2017-May-24 20:25N 33°45' W 118°17'0 0.0
2017-May-24 19:58N 33°45' W 118°17'0 0.0
2017-May-24 19:22N 33°45' W 118°17'0 0.0
2017-May-24 18:58N 33°45' W 118°17'0 0.0
2017-May-24 18:28N 33°45' W 118°17'0 0.0
2017-May-24 17:55N 33°45' W 118°17'0 0.0
2017-May-24 17:28N 33°45' W 118°17'0 0.0
2017-May-24 16:55N 33°45' W 118°17'0 0.0
2017-May-24 16:28N 33°45' W 118°17'0 0.0
2017-May-24 15:55N 33°45' W 118°17'0 0.0
2017-May-24 15:19N 33°45' W 118°17'0 0.0
2017-May-24 14:58N 33°45' W 118°17'0 0.0
2017-May-24 14:28N 33°45' W 118°17'0 0.0
2017-May-24 13:28N 33°45' W 118°17'1 1.7
2017-May-24 13:00N 33°44' W 118°17'3 5.7
2017-May-24 12:30N 33°42' W 118°15'5 9.8
2017-May-24 12:00N 33°37' W 118°12'4 8.2
2017-May-24 11:31N 33°34' W 118°09'4 8.3
2017-May-24 11:01N 33°30' W 118°08'4 8.2
2017-May-24 10:30N 33°26' W 118°06'4 8.4
2017-May-24 10:00N 33°22' W 118°04'6390.3
2017-May-24 10:00N 33°18' W 118°00'2 4.2 250 / 71013.010.8 15.0 18.0
2017-May-24 09:30N 33°18' W 118°02'4 8.5
2017-May-24 09:01N 33°14' W 118°01'5 9.0
2017-May-24 08:30N 33°10' W 117°59'5 9.1
2017-May-24 08:00N 33°06' W 117°56'5 9.1
2017-May-24 07:31N 33°02' W 117°54'4 8.9
2017-May-24 07:01N 32°58' W 117°52'4 8.6
2017-May-24 06:31N 32°54' W 117°50'4 8.6
2017-May-24 06:01N 32°50' W 117°47'9547.8
2017-May-24 06:00N 32°42' W 117°42'510.4 330 / 111011.010.8 20.0 18.0
2017-May-24 05:31N 32°47' W 117°45'4 8.6
2017-May-24 05:01N 32°43' W 117°42'4 8.6
2017-May-24 04:31N 32°39' W 117°40'4 7.6
2017-May-24 04:01N 32°37' W 117°36'5 9.1
2017-May-24 03:30N 32°37' W 117°31'4 8.8
2017-May-24 03:01N 32°37' W 117°25'4 8.7
2017-May-24 02:31N 32°36' W 117°20'5 9.6
2017-May-24 02:00N 32°37' W 117°15'5 9.8
2017-May-24 01:31N 32°42' W 117°14'3 5.4
2017-May-24 00:54N 32°43' W 117°10'0 0.0
2017-May-24 00:27N 32°43' W 117°10'0 0.0
2017-May-23 23:57N 32°43' W 117°10'0 0.0
2017-May-23 23:27N 32°43' W 117°10'0 0.0
2017-May-23 23:00N 32°43' W 117°10'0 0.0
2017-May-23 22:30N 32°43' W 117°10'0 0.0
2017-May-23 22:00N 32°43' W 117°10'0 0.0
2017-May-23 21:30N 32°43' W 117°10'0 0.0
2017-May-23 20:51N 32°43' W 117°10'0 0.0
2017-May-23 20:30N 32°43' W 117°10'0 0.0
2017-May-23 20:00N 32°43' W 117°10'0 0.0
2017-May-23 19:15N 32°43' W 117°10'415.1
2017-May-23 19:00N 32°42' W 117°06'416.1 350 / 111014.010.8 20.0 18.0
2017-May-23 18:45N 32°43' W 117°10'0 0.0
2017-May-23 18:27N 32°43' W 117°10'0 0.0
2017-May-23 17:57N 32°43' W 117°10'0 0.0
2017-May-23 17:30N 32°43' W 117°10'0 0.0
2017-May-23 17:00N 32°43' W 117°10'0 0.0
2017-May-23 16:30N 32°43' W 117°10'0 0.0
2017-May-23 15:58N 32°43' W 117°10'0 0.0
2017-May-23 15:28N 32°43' W 117°10'0 0.0
2017-May-23 14:58N 32°43' W 117°10'0 0.9
2017-May-23 14:30N 32°43' W 117°11'8 7.5
2017-May-23 13:30N 32°36' W 117°15'713.3
2017-May-23 13:01N 32°30' W 117°18'6380.0
2017-May-23 13:00N 32°24' W 117°18'5 9.3 330 / 151014.0 5.4 15.0 18.0
2017-May-23 12:31N 32°22' W 117°23'1018.9
2017-May-23 12:00N 32°13' W 117°22'1020.6
2017-May-23 11:31N 32°03' W 117°20'1020.5
2017-May-23 11:00N 31°54' W 117°13'1020.6
2017-May-23 10:30N 31°44' W 117°09'1020.6
2017-May-23 10:00N 31°34' W 117°07'1019.8
2017-May-23 09:30N 31°24' W 117°04'1518.2
2017-May-23 08:41N 31°10' W 117°00'318.0
2017-May-23 08:30N 31°07' W 116°60'917.8
2017-May-23 08:00N 30°58' W 116°57'917.6
2017-May-23 07:29N 30°49' W 116°55'817.7
2017-May-23 07:00N 30°41' W 116°53'3617.9
2017-May-23 05:00N 30°06' W 116°42'5717.8 330 / 181011.010.8 17.0 18.0
2017-May-23 01:48N 29°11' W 116°25'1117.9
2017-May-23 01:12N 29°01' W 116°20'2418.4
2017-May-22 23:53N 28°39' W 116°09'819.6
2017-May-22 23:30N 28°32' W 116°05'2917.5
2017-May-22 21:52N 28°06' W 115°52'1518.0
2017-May-22 21:03N 27°53' W 115°45'694.9
2017-May-22 21:00N 27°48' W 115°42'4171.9 320 / 181012.010.8 17.0 18.0
2017-May-22 20:58N 27°52' W 115°45'817.6
2017-May-22 20:30N 27°44' W 115°41'917.7
2017-May-22 20:00N 27°36' W 115°37'1017.8
2017-May-22 19:27N 27°27' W 115°33'1217.9
2017-May-22 18:45N 27°16' W 115°27'517.7
2017-May-22 18:28N 27°11' W 115°24'715.4
2017-May-22 18:00N 27°06' W 115°18'239.8 350 / 151011.010.8 16.0 18.0
2017-May-22 17:56N 27°04' W 115°17'817.9
2017-May-22 17:29N 26°58' W 115°11'1418.2
2017-May-22 16:44N 26°47' W 115°01'518.3
2017-May-22 16:27N 26°43' W 114°58'818.2
2017-May-22 15:59N 26°37' W 114°52'1318.2
2017-May-22 15:17N 26°27' W 114°42'1218.1
2017-May-22 14:38N 26°18' W 114°34'1418.3
2017-May-22 13:52N 26°07' W 114°24'818.1
2017-May-22 13:27N 26°01' W 114°19'920.4
2017-May-22 13:00N 25°54' W 114°12'144.4 350 / 161012.0 5.4 17.0 19.0
2017-May-22 12:59N 25°55' W 114°12'2318.2
2017-May-22 11:43N 25°37' W 113°56'418.0
2017-May-22 11:31N 25°34' W 113°54'1817.9
2017-May-22 10:30N 25°20' W 113°41'2317.8
2017-May-22 09:13N 25°02' W 113°25'210.0
2017-May-22 09:00N 25°00' W 113°24'3119.2 300 / 111013.010.8 18.0 21.0
2017-May-22 07:23N 24°36' W 113°02'7120.8
2017-May-22 04:00N 23°54' W 112°00'6315.7 320 / 181010.010.8 19.0 18.0
2017-May-22 00:00N 23°24' W 111°00'5326.7 270 / 161011.0 5.4 20.0 24.0
2017-May-21 22:00N 22°54' W 110°12'51 1.5 330 / 111011.010.8 28.0 24.0
2017-May-20 11:00N 23°06' W 109°18'9011.3 320 / 121009.010.8 23.0 24.0
2017-May-20 03:00N 24°30' W 109°54'28 3.1 300 / 51011.010.8 22.0 23.0
2017-May-19 18:00N 24°12' W 110°18'19 3.1 180 / 51010.010.8 26.0 24.0
2017-May-19 12:00N 24°30' W 110°24'7610.9 150 / 61009.0 5.4 20.0 23.0
2017-May-19 05:00N 25°36' W 109°42'6510.8 180 / 101010.010.8 22.0 23.0
2017-May-18 23:00N 26°24' W 110°30'3718.5 160 / 101010.0 5.4 24.0 24.0
2017-May-18 21:00N 26°06' W 111°06'   120 / 181010.010.8 25.0 24.0
Track history (hours):
 
Tides and Currents Weather Stations Pressure Air Temp Water Temp Dewpoint Dewpoint Depression Visibility Wind Speed Wind Dir Waves Ship Positions

Crystal Serenity

Operator: Crystal Cruises

Last reported at 2017-May-28 08:00 UTC. Time now 2017-May-28 12:24 UTC.
Position N 24°48' W 146°18'.

Length 250 m; draft 7.5 m.

Type: Passenger vessel. MMSI: 311536000.

Wind from 150 at 5 knots

Barometer 1018.0 mb
Air temperature 24.0 ° C
Visibility: greater than 10.8 NM
Water temperature 23.0 ° C

Date/timePositionNaut miles runAvg speedWind from/ knotsBaromVisibWave heightAir tempDewpointWater temp
2017-May-28 08:00N 24°48' W 146°18'15619.5 150 / 51018.010.8 24.0 23.0
2017-May-28 00:00N 25°42' W 143°36'3517.3 170 / 221019.010.8 24.0 24.0
2017-May-27 22:00N 25°54' W 143°00'1717.3 170 / 211019.010.8 24.0 24.0
2017-May-27 21:00N 26°00' W 142°42'28820.5 180 / 151011.010.8 24.0 24.0
2017-May-27 07:00N 27°30' W 137°36'21919.9 050 / 101017.010.8 20.0 18.0
2017-May-26 20:00N 28°42' W 133°42'8421.1 330 / 111017.010.8 19.0 18.0
2017-May-26 16:00N 29°12' W 132°12'7719.3 330 / 161018.0 5.4 18.0 19.0
2017-May-26 12:00N 29°36' W 130°48'13719.5 360 / 121017.010.8 17.0 19.0
2017-May-26 05:00N 30°18' W 128°18'12625.2 360 / 181011.010.8 18.0 16.0
2017-May-26 00:00N 31°00' W 126°00'9218.4 330 / 211011.010.8 16.0 17.0
2017-May-25 19:00N 31°30' W 124°18'14620.8 330 / 151011.010.8 16.0 18.0
2017-May-25 12:00N 32°18' W 121°36'3015.5 300 / 151011.010.8 16.0 16.0
2017-May-25 10:02N 32°32' W 121°05'5219.9
2017-May-25 07:25N 32°50' W 120°06'820.3
2017-May-25 07:00N 32°52' W 119°56'1020.1
2017-May-25 06:30N 32°56' W 119°45'1120.6
2017-May-25 05:59N 32°59' W 119°33'1020.8
2017-May-25 05:30N 33°04' W 119°23'1020.6
2017-May-25 05:00N 33°10' W 119°13'4345.3
2017-May-25 05:00N 33°06' W 119°12'1326.5 330 / 181011.010.8 16.0 18.0
2017-May-25 04:30N 33°16' W 119°03'1020.6
2017-May-25 04:00N 33°22' W 118°53'1019.2
2017-May-25 03:30N 33°27' W 118°43'713.3
2017-May-25 03:00N 33°31' W 118°36'611.8
2017-May-25 02:30N 33°32' W 118°29'611.9
2017-May-25 02:00N 33°34' W 118°22'611.2
2017-May-25 01:30N 33°37' W 118°17'510.4
2017-May-25 01:01N 33°42' W 118°15'3 6.2
2017-May-25 00:31N 33°44' W 118°17'1 1.1
2017-May-24 23:55N 33°45' W 118°17'0 0.0
2017-May-24 23:28N 33°45' W 118°17'0 0.0
2017-May-24 22:58N 33°45' W 118°17'0 0.0
2017-May-24 22:28N 33°45' W 118°17'0 0.0
2017-May-24 21:58N 33°45' W 118°17'0 0.0
2017-May-24 21:28N 33°45' W 118°17'0 0.0
2017-May-24 20:58N 33°45' W 118°17'0 0.0
2017-May-24 20:25N 33°45' W 118°17'0 0.0
2017-May-24 19:58N 33°45' W 118°17'0 0.0
2017-May-24 19:22N 33°45' W 118°17'0 0.0
2017-May-24 18:58N 33°45' W 118°17'0 0.0
2017-May-24 18:28N 33°45' W 118°17'0 0.0
2017-May-24 17:55N 33°45' W 118°17'0 0.0
2017-May-24 17:28N 33°45' W 118°17'0 0.0
2017-May-24 16:55N 33°45' W 118°17'0 0.0
2017-May-24 16:28N 33°45' W 118°17'0 0.0
2017-May-24 15:55N 33°45' W 118°17'0 0.0
2017-May-24 15:19N 33°45' W 118°17'0 0.0
2017-May-24 14:58N 33°45' W 118°17'0 0.0
2017-May-24 14:28N 33°45' W 118°17'0 0.0
2017-May-24 13:28N 33°45' W 118°17'1 1.7
2017-May-24 13:00N 33°44' W 118°17'3 5.7
2017-May-24 12:30N 33°42' W 118°15'5 9.8
2017-May-24 12:00N 33°37' W 118°12'4 8.2
2017-May-24 11:31N 33°34' W 118°09'4 8.3
2017-May-24 11:01N 33°30' W 118°08'4 8.2
2017-May-24 10:30N 33°26' W 118°06'4 8.4
2017-May-24 10:00N 33°22' W 118°04'6390.3
2017-May-24 10:00N 33°18' W 118°00'2 4.2 250 / 71013.010.8 15.0 18.0
2017-May-24 09:30N 33°18' W 118°02'4 8.5
2017-May-24 09:01N 33°14' W 118°01'5 9.0
2017-May-24 08:30N 33°10' W 117°59'5 9.1
2017-May-24 08:00N 33°06' W 117°56'5 9.1
2017-May-24 07:31N 33°02' W 117°54'4 8.9
2017-May-24 07:01N 32°58' W 117°52'4 8.6
2017-May-24 06:31N 32°54' W 117°50'4 8.6
2017-May-24 06:01N 32°50' W 117°47'9547.8
2017-May-24 06:00N 32°42' W 117°42'510.4 330 / 111011.010.8 20.0 18.0
2017-May-24 05:31N 32°47' W 117°45'4 8.6
2017-May-24 05:01N 32°43' W 117°42'4 8.6
2017-May-24 04:31N 32°39' W 117°40'4 7.6
2017-May-24 04:01N 32°37' W 117°36'5 9.1
2017-May-24 03:30N 32°37' W 117°31'4 8.8
2017-May-24 03:01N 32°37' W 117°25'4 8.7
2017-May-24 02:31N 32°36' W 117°20'5 9.6
2017-May-24 02:00N 32°37' W 117°15'5 9.8
2017-May-24 01:31N 32°42' W 117°14'3 5.4
2017-May-24 00:54N 32°43' W 117°10'0 0.0
2017-May-24 00:27N 32°43' W 117°10'0 0.0
2017-May-23 23:57N 32°43' W 117°10'0 0.0
2017-May-23 23:27N 32°43' W 117°10'0 0.0
2017-May-23 23:00N 32°43' W 117°10'0 0.0
2017-May-23 22:30N 32°43' W 117°10'0 0.0
2017-May-23 22:00N 32°43' W 117°10'0 0.0
2017-May-23 21:30N 32°43' W 117°10'0 0.0
2017-May-23 20:51N 32°43' W 117°10'0 0.0
2017-May-23 20:30N 32°43' W 117°10'0 0.0
2017-May-23 20:00N 32°43' W 117°10'0 0.0
2017-May-23 19:15N 32°43' W 117°10'415.1
2017-May-23 19:00N 32°42' W 117°06'416.1 350 / 111014.010.8 20.0 18.0
2017-May-23 18:45N 32°43' W 117°10'0 0.0
2017-May-23 18:27N 32°43' W 117°10'0 0.0
2017-May-23 17:57N 32°43' W 117°10'0 0.0
2017-May-23 17:30N 32°43' W 117°10'0 0.0
2017-May-23 17:00N 32°43' W 117°10'0 0.0
2017-May-23 16:30N 32°43' W 117°10'0 0.0
2017-May-23 15:58N 32°43' W 117°10'0 0.0
2017-May-23 15:28N 32°43' W 117°10'0 0.0
2017-May-23 14:58N 32°43' W 117°10'0 0.9
2017-May-23 14:30N 32°43' W 117°11'8 7.5
2017-May-23 13:30N 32°36' W 117°15'713.3
2017-May-23 13:01N 32°30' W 117°18'6380.0
2017-May-23 13:00N 32°24' W 117°18'5 9.3 330 / 151014.0 5.4 15.0 18.0
2017-May-23 12:31N 32°22' W 117°23'1018.9
2017-May-23 12:00N 32°13' W 117°22'1020.6
2017-May-23 11:31N 32°03' W 117°20'1020.5
2017-May-23 11:00N 31°54' W 117°13'1020.6
2017-May-23 10:30N 31°44' W 117°09'1020.6
2017-May-23 10:00N 31°34' W 117°07'1019.8
2017-May-23 09:30N 31°24' W 117°04'1518.2
2017-May-23 08:41N 31°10' W 117°00'318.0
2017-May-23 08:30N 31°07' W 116°60'917.8
2017-May-23 08:00N 30°58' W 116°57'917.6
2017-May-23 07:29N 30°49' W 116°55'817.7
2017-May-23 07:00N 30°41' W 116°53'3617.9
2017-May-23 05:00N 30°06' W 116°42'5717.8 330 / 181011.010.8 17.0 18.0
2017-May-23 01:48N 29°11' W 116°25'1117.9
2017-May-23 01:12N 29°01' W 116°20'2418.4
2017-May-22 23:53N 28°39' W 116°09'819.6
2017-May-22 23:30N 28°32' W 116°05'2917.5
2017-May-22 21:52N 28°06' W 115°52'1518.0
2017-May-22 21:03N 27°53' W 115°45'694.9
2017-May-22 21:00N 27°48' W 115°42'4171.9 320 / 181012.010.8 17.0 18.0
2017-May-22 20:58N 27°52' W 115°45'817.6
2017-May-22 20:30N 27°44' W 115°41'917.7
2017-May-22 20:00N 27°36' W 115°37'1017.8
2017-May-22 19:27N 27°27' W 115°33'1217.9
2017-May-22 18:45N 27°16' W 115°27'517.7
2017-May-22 18:28N 27°11' W 115°24'715.4
2017-May-22 18:00N 27°06' W 115°18'239.8 350 / 151011.010.8 16.0 18.0
2017-May-22 17:56N 27°04' W 115°17'817.9
2017-May-22 17:29N 26°58' W 115°11'1418.2
2017-May-22 16:44N 26°47' W 115°01'518.3
2017-May-22 16:27N 26°43' W 114°58'818.2
2017-May-22 15:59N 26°37' W 114°52'1318.2
2017-May-22 15:17N 26°27' W 114°42'1218.1
2017-May-22 14:38N 26°18' W 114°34'1418.3
2017-May-22 13:52N 26°07' W 114°24'818.1
2017-May-22 13:27N 26°01' W 114°19'920.4
2017-May-22 13:00N 25°54' W 114°12'144.4 350 / 161012.0 5.4 17.0 19.0
2017-May-22 12:59N 25°55' W 114°12'2318.2
2017-May-22 11:43N 25°37' W 113°56'418.0
2017-May-22 11:31N 25°34' W 113°54'1817.9
2017-May-22 10:30N 25°20' W 113°41'2317.8
2017-May-22 09:13N 25°02' W 113°25'210.0
2017-May-22 09:00N 25°00' W 113°24'3119.2 300 / 111013.010.8 18.0 21.0
2017-May-22 07:23N 24°36' W 113°02'7120.8
2017-May-22 04:00N 23°54' W 112°00'6315.7 320 / 181010.010.8 19.0 18.0
2017-May-22 00:00N 23°24' W 111°00'5326.7 270 / 161011.0 5.4 20.0 24.0
2017-May-21 22:00N 22°54' W 110°12'51 1.5 330 / 111011.010.8 28.0 24.0
2017-May-20 11:00N 23°06' W 109°18'9011.3 320 / 121009.010.8 23.0 24.0
2017-May-20 03:00N 24°30' W 109°54'28 3.1 300 / 51011.010.8 22.0 23.0
2017-May-19 18:00N 24°12' W 110°18'19 3.1 180 / 51010.010.8 26.0 24.0
2017-May-19 12:00N 24°30' W 110°24'7610.9 150 / 61009.0 5.4 20.0 23.0
2017-May-19 05:00N 25°36' W 109°42'6510.8 180 / 101010.010.8 22.0 23.0
2017-May-18 23:00N 26°24' W 110°30'3718.5 160 / 101010.0 5.4 24.0 24.0
2017-May-18 21:00N 26°06' W 111°06'   120 / 181010.010.8 25.0 24.0

Dump ship's entire track history